sensor_id;sensor_type;location;lat;lon;timestamp;pressure;altitude;pressure_sealevel;temperature;humidity
27202;BME280;14717;46.924;15.474;2023-11-19T00:02:08;98413.00;;;4.50;100.00
27202;BME280;14717;46.924;15.474;2023-11-19T00:04:37;98403.84;;;4.56;100.00
27202;BME280;14717;46.924;15.474;2023-11-19T00:07:06;98399.22;;;4.45;100.00
27202;BME280;14717;46.924;15.474;2023-11-19T00:09:33;98394.13;;;4.37;100.00
27202;BME280;14717;46.924;15.474;2023-11-19T00:11:59;98394.88;;;4.32;100.00
27202;BME280;14717;46.924;15.474;2023-11-19T00:14:25;98395.22;;;4.36;100.00
27202;BME280;14717;46.924;15.474;2023-11-19T00:16:51;98391.69;;;4.24;100.00
27202;BME280;14717;46.924;15.474;2023-11-19T00:19:16;98397.03;;;4.19;100.00
27202;BME280;14717;46.924;15.474;2023-11-19T00:21:42;98383.25;;;4.14;100.00
27202;BME280;14717;46.924;15.474;2023-11-19T00:24:08;98376.81;;;4.09;100.00
27202;BME280;14717;46.924;15.474;2023-11-19T00:26:34;98373.16;;;4.03;100.00
27202;BME280;14717;46.924;15.474;2023-11-19T00:28:59;98376.94;;;4.02;100.00
27202;BME280;14717;46.924;15.474;2023-11-19T00:31:25;98374.84;;;4.04;100.00
27202;BME280;14717;46.924;15.474;2023-11-19T00:33:53;98394.88;;;4.21;100.00
27202;BME280;14717;46.924;15.474;2023-11-19T00:36:19;98396.16;;;4.41;100.00
27202;BME280;14717;46.924;15.474;2023-11-19T00:38:45;98397.09;;;4.47;100.00
27202;BME280;14717;46.924;15.474;2023-11-19T00:41:11;98401.13;;;4.56;100.00
27202;BME280;14717;46.924;15.474;2023-11-19T00:43:36;98387.22;;;4.46;100.00
27202;BME280;14717;46.924;15.474;2023-11-19T00:46:02;98391.03;;;4.45;100.00
27202;BME280;14717;46.924;15.474;2023-11-19T00:48:30;98382.69;;;4.51;100.00
27202;BME280;14717;46.924;15.474;2023-11-19T00:50:57;98388.72;;;4.64;100.00
27202;BME280;14717;46.924;15.474;2023-11-19T00:53:22;98376.94;;;4.64;100.00
27202;BME280;14717;46.924;15.474;2023-11-19T00:55:50;98361.16;;;4.55;100.00
27202;BME280;14717;46.924;15.474;2023-11-19T00:58:15;98357.34;;;4.56;100.00
27202;BME280;14717;46.924;15.474;2023-11-19T01:00:42;98353.53;;;4.57;100.00
27202;BME280;14717;46.924;15.474;2023-11-19T01:03:10;98348.78;;;4.64;100.00
27202;BME280;14717;46.924;15.474;2023-11-19T01:05:37;98360.88;;;4.67;100.00
27202;BME280;14717;46.924;15.474;2023-11-19T01:08:05;98340.06;;;4.66;100.00
27202;BME280;14717;46.924;15.474;2023-11-19T01:10:39;98335.66;;;4.65;100.00
27202;BME280;14717;46.924;15.474;2023-11-19T01:13:05;98338.59;;;4.75;100.00
27202;BME280;14717;46.924;15.474;2023-11-19T01:15:33;98334.78;;;4.76;100.00
27202;BME280;14717;46.924;15.474;2023-11-19T01:17:59;98340.00;;;4.78;100.00
27202;BME280;14717;46.924;15.474;2023-11-19T01:20:32;98350.69;;;4.52;100.00
27202;BME280;14717;46.924;15.474;2023-11-19T01:22:59;98350.00;;;4.45;100.00
27202;BME280;14717;46.924;15.474;2023-11-19T01:25:27;98338.84;;;4.35;100.00
27202;BME280;14717;46.924;15.474;2023-11-19T01:27:53;98329.88;;;4.23;100.00
27202;BME280;14717;46.924;15.474;2023-11-19T01:30:18;98318.94;;;4.23;100.00
27202;BME280;14717;46.924;15.474;2023-11-19T01:32:45;98308.69;;;4.30;100.00
27202;BME280;14717;46.924;15.474;2023-11-19T01:35:10;98310.00;;;4.27;100.00
27202;BME280;14717;46.924;15.474;2023-11-19T01:37:36;98317.13;;;4.28;100.00
27202;BME280;14717;46.924;15.474;2023-11-19T01:40:02;98317.19;;;4.45;100.00
27202;BME280;14717;46.924;15.474;2023-11-19T01:42:40;98305.47;;;4.61;100.00
27202;BME280;14717;46.924;15.474;2023-11-19T01:45:06;98290.56;;;4.68;100.00
27202;BME280;14717;46.924;15.474;2023-11-19T01:47:35;98287.31;;;4.55;100.00
27202;BME280;14717;46.924;15.474;2023-11-19T01:50:02;98281.94;;;4.60;100.00
27202;BME280;14717;46.924;15.474;2023-11-19T01:52:35;98272.25;;;4.68;100.00
27202;BME280;14717;46.924;15.474;2023-11-19T01:55:04;98278.31;;;4.70;100.00
27202;BME280;14717;46.924;15.474;2023-11-19T01:57:32;98270.97;;;4.60;100.00
27202;BME280;14717;46.924;15.474;2023-11-19T02:00:01;98259.38;;;4.53;100.00
27202;BME280;14717;46.924;15.474;2023-11-19T02:02:27;98266.81;;;4.41;100.00
27202;BME280;14717;46.924;15.474;2023-11-19T02:04:53;98253.03;;;4.36;100.00
27202;BME280;14717;46.924;15.474;2023-11-19T02:07:19;98251.34;;;4.35;100.00
27202;BME280;14717;46.924;15.474;2023-11-19T02:09:45;98254.53;;;4.43;100.00
27202;BME280;14717;46.924;15.474;2023-11-19T02:12:11;98252.75;;;4.49;100.00
27202;BME280;14717;46.924;15.474;2023-11-19T02:14:40;98242.81;;;4.59;100.00
27202;BME280;14717;46.924;15.474;2023-11-19T02:17:05;98248.72;;;4.67;100.00
27202;BME280;14717;46.924;15.474;2023-11-19T02:19:31;98245.66;;;4.80;100.00
27202;BME280;14717;46.924;15.474;2023-11-19T02:21:57;98240.19;;;4.80;100.00
27202;BME280;14717;46.924;15.474;2023-11-19T02:24:25;98235.22;;;4.77;100.00
27202;BME280;14717;46.924;15.474;2023-11-19T02:27:08;98229.56;;;4.67;100.00
27202;BME280;14717;46.924;15.474;2023-11-19T02:29:36;98229.03;;;4.54;100.00
27202;BME280;14717;46.924;15.474;2023-11-19T02:32:01;98216.25;;;4.43;100.00
27202;BME280;14717;46.924;15.474;2023-11-19T02:34:27;98213.41;;;4.38;100.00
27202;BME280;14717;46.924;15.474;2023-11-19T02:36:52;98215.25;;;4.33;100.00
27202;BME280;14717;46.924;15.474;2023-11-19T02:39:19;98206.69;;;4.29;100.00
27202;BME280;14717;46.924;15.474;2023-11-19T02:41:47;98197.69;;;4.29;100.00
27202;BME280;14717;46.924;15.474;2023-11-19T02:44:14;98207.28;;;4.31;100.00
27202;BME280;14717;46.924;15.474;2023-11-19T02:46:40;98209.28;;;4.36;100.00
27202;BME280;14717;46.924;15.474;2023-11-19T02:49:07;98214.28;;;4.39;99.63
27202;BME280;14717;46.924;15.474;2023-11-19T02:51:33;98208.28;;;4.42;100.00
27202;BME280;14717;46.924;15.474;2023-11-19T02:54:00;98204.00;;;4.46;99.55
27202;BME280;14717;46.924;15.474;2023-11-19T02:56:25;98192.56;;;4.49;99.22
27202;BME280;14717;46.924;15.474;2023-11-19T02:58:52;98195.56;;;4.47;99.32
27202;BME280;14717;46.924;15.474;2023-11-19T03:01:24;98187.09;;;4.49;99.60
27202;BME280;14717;46.924;15.474;2023-11-19T03:04:01;98175.31;;;4.48;98.99
27202;BME280;14717;46.924;15.474;2023-11-19T03:06:27;98173.09;;;4.45;99.72
27202;BME280;14717;46.924;15.474;2023-11-19T03:08:54;98175.66;;;4.52;98.84
27202;BME280;14717;46.924;15.474;2023-11-19T03:11:20;98170.97;;;4.64;99.18
27202;BME280;14717;46.924;15.474;2023-11-19T03:13:45;98169.19;;;4.58;97.57
27202;BME280;14717;46.924;15.474;2023-11-19T03:16:12;98166.47;;;4.58;98.54
27202;BME280;14717;46.924;15.474;2023-11-19T03:18:38;98158.25;;;4.58;97.80
27202;BME280;14717;46.924;15.474;2023-11-19T03:21:08;98155.94;;;4.50;97.84
27202;BME280;14717;46.924;15.474;2023-11-19T03:23:34;98164.38;;;4.48;97.65
27202;BME280;14717;46.924;15.474;2023-11-19T03:26:00;98154.19;;;4.44;99.42
27202;BME280;14717;46.924;15.474;2023-11-19T03:28:29;98151.88;;;4.36;98.17
27202;BME280;14717;46.924;15.474;2023-11-19T03:30:54;98149.63;;;4.33;98.47
27202;BME280;14717;46.924;15.474;2023-11-19T03:33:20;98148.56;;;4.34;99.63
27202;BME280;14717;46.924;15.474;2023-11-19T03:35:55;98141.41;;;4.33;99.80
27202;BME280;14717;46.924;15.474;2023-11-19T03:38:21;98137.53;;;4.29;99.55
27202;BME280;14717;46.924;15.474;2023-11-19T03:40:47;98134.19;;;4.27;99.65
27202;BME280;14717;46.924;15.474;2023-11-19T03:43:12;98130.31;;;4.23;99.56
27202;BME280;14717;46.924;15.474;2023-11-19T03:45:38;98132.22;;;4.22;100.00
27202;BME280;14717;46.924;15.474;2023-11-19T03:48:04;98121.53;;;4.21;100.00
27202;BME280;14717;46.924;15.474;2023-11-19T03:50:32;98112.00;;;4.23;100.00
27202;BME280;14717;46.924;15.474;2023-11-19T03:52:58;98109.50;;;4.22;100.00
27202;BME280;14717;46.924;15.474;2023-11-19T03:55:26;98102.47;;;4.26;100.00
27202;BME280;14717;46.924;15.474;2023-11-19T03:57:52;98105.69;;;4.23;100.00
27202;BME280;14717;46.924;15.474;2023-11-19T04:00:17;98102.72;;;4.24;100.00
27202;BME280;14717;46.924;15.474;2023-11-19T04:02:43;98114.47;;;4.25;100.00
27202;BME280;14717;46.924;15.474;2023-11-19T04:05:08;98112.56;;;4.25;100.00
27202;BME280;14717;46.924;15.474;2023-11-19T04:07:35;98110.69;;;4.26;100.00
27202;BME280;14717;46.924;15.474;2023-11-19T04:10:02;98104.34;;;4.25;100.00
27202;BME280;14717;46.924;15.474;2023-11-19T04:12:28;98098.72;;;4.32;100.00
27202;BME280;14717;46.924;15.474;2023-11-19T04:14:54;98093.44;;;4.42;100.00
27202;BME280;14717;46.924;15.474;2023-11-19T04:17:19;98083.03;;;4.39;100.00
27202;BME280;14717;46.924;15.474;2023-11-19T04:19:48;98084.66;;;4.40;100.00
27202;BME280;14717;46.924;15.474;2023-11-19T04:22:13;98076.03;;;4.48;100.00
27202;BME280;14717;46.924;15.474;2023-11-19T04:24:42;98064.84;;;4.65;100.00
27202;BME280;14717;46.924;15.474;2023-11-19T04:27:09;98072.56;;;4.68;100.00
27202;BME280;14717;46.924;15.474;2023-11-19T04:29:35;98078.69;;;4.75;100.00
27202;BME280;14717;46.924;15.474;2023-11-19T04:32:00;98074.66;;;4.83;99.79
27202;BME280;14717;46.924;15.474;2023-11-19T04:34:26;98067.41;;;4.72;100.00
27202;BME280;14717;46.924;15.474;2023-11-19T04:36:52;98075.28;;;4.68;100.00
27202;BME280;14717;46.924;15.474;2023-11-19T04:39:17;98069.75;;;4.64;99.90
27202;BME280;14717;46.924;15.474;2023-11-19T04:41:50;98075.38;;;4.73;99.92
27202;BME280;14717;46.924;15.474;2023-11-19T04:44:18;98080.22;;;4.71;99.03
27202;BME280;14717;46.924;15.474;2023-11-19T04:46:46;98073.38;;;4.69;99.01
27202;BME280;14717;46.924;15.474;2023-11-19T04:49:13;98068.91;;;4.63;99.91
27202;BME280;14717;46.924;15.474;2023-11-19T04:51:41;98055.38;;;4.57;100.00
27202;BME280;14717;46.924;15.474;2023-11-19T04:54:13;98056.81;;;4.43;100.00
27202;BME280;14717;46.924;15.474;2023-11-19T04:56:39;98061.47;;;4.42;100.00
27202;BME280;14717;46.924;15.474;2023-11-19T04:59:05;98064.44;;;4.41;100.00
27202;BME280;14717;46.924;15.474;2023-11-19T05:01:34;98071.91;;;4.45;100.00
27202;BME280;14717;46.924;15.474;2023-11-19T05:04:00;98056.75;;;4.38;100.00
27202;BME280;14717;46.924;15.474;2023-11-19T05:06:27;98056.25;;;4.24;100.00
27202;BME280;14717;46.924;15.474;2023-11-19T05:08:53;98038.19;;;4.07;100.00
27202;BME280;14717;46.924;15.474;2023-11-19T05:11:19;98039.66;;;3.98;100.00
27202;BME280;14717;46.924;15.474;2023-11-19T05:13:45;98039.41;;;3.83;100.00
27202;BME280;14717;46.924;15.474;2023-11-19T05:16:11;98033.47;;;3.86;100.00
27202;BME280;14717;46.924;15.474;2023-11-19T05:18:40;98028.00;;;3.86;100.00
27202;BME280;14717;46.924;15.474;2023-11-19T05:21:05;98020.03;;;3.85;100.00
27202;BME280;14717;46.924;15.474;2023-11-19T05:23:32;98028.66;;;3.93;100.00
27202;BME280;14717;46.924;15.474;2023-11-19T05:25:59;98016.06;;;3.92;100.00
27202;BME280;14717;46.924;15.474;2023-11-19T05:28:25;98008.72;;;3.93;100.00
27202;BME280;14717;46.924;15.474;2023-11-19T05:30:51;98009.84;;;3.80;100.00
27202;BME280;14717;46.924;15.474;2023-11-19T05:33:17;98020.84;;;3.85;100.00
27202;BME280;14717;46.924;15.474;2023-11-19T05:35:42;98011.28;;;3.83;100.00
27202;BME280;14717;46.924;15.474;2023-11-19T05:38:08;98017.31;;;3.85;100.00
27202;BME280;14717;46.924;15.474;2023-11-19T05:40:34;98019.41;;;3.94;100.00
27202;BME280;14717;46.924;15.474;2023-11-19T05:43:00;98027.00;;;3.92;100.00
27202;BME280;14717;46.924;15.474;2023-11-19T05:45:26;98024.84;;;3.94;100.00
27202;BME280;14717;46.924;15.474;2023-11-19T05:47:54;98033.63;;;3.96;100.00
27202;BME280;14717;46.924;15.474;2023-11-19T05:50:20;98023.28;;;3.98;100.00
27202;BME280;14717;46.924;15.474;2023-11-19T05:52:48;98022.28;;;3.88;100.00
27202;BME280;14717;46.924;15.474;2023-11-19T05:55:14;98023.69;;;3.90;100.00
27202;BME280;14717;46.924;15.474;2023-11-19T05:57:39;98024.00;;;3.78;100.00
27202;BME280;14717;46.924;15.474;2023-11-19T06:00:06;98016.31;;;3.91;100.00
27202;BME280;14717;46.924;15.474;2023-11-19T06:02:33;98004.47;;;3.85;100.00
27202;BME280;14717;46.924;15.474;2023-11-19T06:04:58;97993.72;;;3.95;100.00
27202;BME280;14717;46.924;15.474;2023-11-19T06:07:24;98006.00;;;4.09;100.00
27202;BME280;14717;46.924;15.474;2023-11-19T06:09:59;97985.59;;;4.17;100.00
27202;BME280;14717;46.924;15.474;2023-11-19T06:12:25;97987.91;;;4.08;100.00
27202;BME280;14717;46.924;15.474;2023-11-19T06:14:52;97983.34;;;3.97;100.00
27202;BME280;14717;46.924;15.474;2023-11-19T06:17:18;97981.16;;;3.94;100.00
27202;BME280;14717;46.924;15.474;2023-11-19T06:19:43;97978.50;;;3.99;100.00
27202;BME280;14717;46.924;15.474;2023-11-19T06:22:10;97986.09;;;3.97;100.00
27202;BME280;14717;46.924;15.474;2023-11-19T06:24:36;97975.91;;;4.09;100.00
27202;BME280;14717;46.924;15.474;2023-11-19T06:27:02;97967.38;;;4.06;100.00
27202;BME280;14717;46.924;15.474;2023-11-19T06:29:28;97977.00;;;4.08;100.00
27202;BME280;14717;46.924;15.474;2023-11-19T06:31:53;97985.75;;;4.10;100.00
27202;BME280;14717;46.924;15.474;2023-11-19T06:34:19;97975.41;;;4.12;100.00
27202;BME280;14717;46.924;15.474;2023-11-19T06:36:44;97992.56;;;4.08;100.00
27202;BME280;14717;46.924;15.474;2023-11-19T06:39:10;97983.91;;;4.16;100.00
27202;BME280;14717;46.924;15.474;2023-11-19T06:41:38;97964.72;;;4.11;100.00
27202;BME280;14717;46.924;15.474;2023-11-19T06:44:04;97970.22;;;3.94;100.00
27202;BME280;14717;46.924;15.474;2023-11-19T06:46:30;97971.28;;;4.10;100.00
27202;BME280;14717;46.924;15.474;2023-11-19T06:48:56;97967.03;;;4.02;100.00
27202;BME280;14717;46.924;15.474;2023-11-19T06:51:22;97962.91;;;4.16;100.00
27202;BME280;14717;46.924;15.474;2023-11-19T06:53:47;97964.53;;;4.17;100.00
27202;BME280;14717;46.924;15.474;2023-11-19T06:56:23;97960.25;;;4.21;100.00
27202;BME280;14717;46.924;15.474;2023-11-19T06:58:49;97968.22;;;4.06;100.00
27202;BME280;14717;46.924;15.474;2023-11-19T07:01:16;97975.91;;;4.09;100.00
27202;BME280;14717;46.924;15.474;2023-11-19T07:03:44;97991.16;;;4.05;100.00
27202;BME280;14717;46.924;15.474;2023-11-19T07:06:10;97979.22;;;4.11;100.00
27202;BME280;14717;46.924;15.474;2023-11-19T07:08:35;97981.31;;;4.04;100.00
27202;BME280;14717;46.924;15.474;2023-11-19T07:11:02;97995.38;;;4.13;100.00
27202;BME280;14717;46.924;15.474;2023-11-19T07:13:27;98007.28;;;4.23;100.00
27202;BME280;14717;46.924;15.474;2023-11-19T07:15:55;97997.88;;;4.14;100.00
27202;BME280;14717;46.924;15.474;2023-11-19T07:18:21;97998.34;;;4.11;100.00
27202;BME280;14717;46.924;15.474;2023-11-19T07:20:48;98001.75;;;4.18;100.00
27202;BME280;14717;46.924;15.474;2023-11-19T07:23:14;98000.00;;;4.28;100.00
27202;BME280;14717;46.924;15.474;2023-11-19T07:25:42;97995.69;;;4.32;100.00
27202;BME280;14717;46.924;15.474;2023-11-19T07:28:08;97988.59;;;4.53;100.00
27202;BME280;14717;46.924;15.474;2023-11-19T07:30:35;97999.88;;;4.56;100.00
27202;BME280;14717;46.924;15.474;2023-11-19T07:33:00;97973.41;;;4.62;100.00
27202;BME280;14717;46.924;15.474;2023-11-19T07:35:29;97973.47;;;4.66;100.00
27202;BME280;14717;46.924;15.474;2023-11-19T07:37:56;97966.31;;;4.61;100.00
27202;BME280;14717;46.924;15.474;2023-11-19T07:40:21;97949.75;;;4.51;100.00
27202;BME280;14717;46.924;15.474;2023-11-19T07:42:47;97941.94;;;4.59;100.00
27202;BME280;14717;46.924;15.474;2023-11-19T07:45:12;97929.94;;;4.60;100.00
27202;BME280;14717;46.924;15.474;2023-11-19T07:47:43;97914.13;;;4.46;100.00
27202;BME280;14717;46.924;15.474;2023-11-19T07:50:20;97898.72;;;4.40;100.00
27202;BME280;14717;46.924;15.474;2023-11-19T07:52:50;97924.03;;;4.52;100.00
27202;BME280;14717;46.924;15.474;2023-11-19T07:55:19;97956.56;;;4.69;100.00
27202;BME280;14717;46.924;15.474;2023-11-19T07:58:07;97966.69;;;4.90;100.00
27202;BME280;14717;46.924;15.474;2023-11-19T08:00:33;97971.34;;;4.90;100.00
27202;BME280;14717;46.924;15.474;2023-11-19T08:03:16;97958.66;;;5.05;100.00
27202;BME280;14717;46.924;15.474;2023-11-19T08:05:45;97952.63;;;5.03;100.00
27202;BME280;14717;46.924;15.474;2023-11-19T08:08:14;97945.22;;;5.04;100.00
27202;BME280;14717;46.924;15.474;2023-11-19T08:10:41;97949.88;;;5.03;100.00
27202;BME280;14717;46.924;15.474;2023-11-19T08:13:06;97952.88;;;5.02;100.00
27202;BME280;14717;46.924;15.474;2023-11-19T08:15:38;97957.31;;;5.07;100.00
27202;BME280;14717;46.924;15.474;2023-11-19T08:18:06;97948.84;;;5.09;100.00
27202;BME280;14717;46.924;15.474;2023-11-19T08:20:56;97934.16;;;5.15;100.00
27202;BME280;14717;46.924;15.474;2023-11-19T08:26:20;97954.34;;;5.35;100.00
27202;BME280;14717;46.924;15.474;2023-11-19T08:28:48;97945.81;;;5.32;100.00
27202;BME280;14717;46.924;15.474;2023-11-19T08:31:14;97938.59;;;5.47;100.00
27202;BME280;14717;46.924;15.474;2023-11-19T08:33:40;97937.31;;;5.54;99.96
27202;BME280;14717;46.924;15.474;2023-11-19T08:36:06;97930.25;;;5.63;99.19
27202;BME280;14717;46.924;15.474;2023-11-19T08:38:32;97918.47;;;5.63;98.88
27202;BME280;14717;46.924;15.474;2023-11-19T08:40:57;97911.66;;;5.65;98.11
27202;BME280;14717;46.924;15.474;2023-11-19T08:43:28;97934.44;;;5.71;97.45
27202;BME280;14717;46.924;15.474;2023-11-19T08:46:05;97927.69;;;5.78;97.13
27202;BME280;14717;46.924;15.474;2023-11-19T08:48:48;97912.09;;;5.79;95.72
27202;BME280;14717;46.924;15.474;2023-11-19T08:51:32;97922.28;;;5.88;94.84
27202;BME280;14717;46.924;15.474;2023-11-19T08:54:01;97920.25;;;6.05;94.97
27202;BME280;14717;46.924;15.474;2023-11-19T08:59:19;97913.59;;;6.37;92.89
27202;BME280;14717;46.924;15.474;2023-11-19T09:01:53;97899.94;;;6.47;90.78
27202;BME280;14717;46.924;15.474;2023-11-19T09:04:22;97904.66;;;6.56;89.08
27202;BME280;14717;46.924;15.474;2023-11-19T09:06:48;97912.25;;;6.39;87.06
27202;BME280;14717;46.924;15.474;2023-11-19T09:09:14;97902.53;;;6.68;86.32
27202;BME280;14717;46.924;15.474;2023-11-19T09:11:42;97905.00;;;6.70;85.83
27202;BME280;14717;46.924;15.474;2023-11-19T09:14:08;97896.81;;;6.79;84.47
27202;BME280;14717;46.924;15.474;2023-11-19T09:16:34;97897.72;;;7.00;85.43
27202;BME280;14717;46.924;15.474;2023-11-19T09:18:59;97901.41;;;6.64;87.74
27202;BME280;14717;46.924;15.474;2023-11-19T09:21:26;97904.09;;;7.15;89.14
27202;BME280;14717;46.924;15.474;2023-11-19T09:23:51;97900.53;;;7.24;86.09
27202;BME280;14717;46.924;15.474;2023-11-19T09:26:24;97895.03;;;7.29;85.37
27202;BME280;14717;46.924;15.474;2023-11-19T09:28:50;97891.19;;;7.25;85.67
27202;BME280;14717;46.924;15.474;2023-11-19T09:31:18;97877.44;;;7.16;85.74
27202;BME280;14717;46.924;15.474;2023-11-19T09:33:44;97879.34;;;7.00;86.54
27202;BME280;14717;46.924;15.474;2023-11-19T09:36:14;97875.25;;;7.18;87.07
27202;BME280;14717;46.924;15.474;2023-11-19T09:38:45;97870.91;;;7.31;85.15
27202;BME280;14717;46.924;15.474;2023-11-19T09:41:11;97873.06;;;7.34;83.75
27202;BME280;14717;46.924;15.474;2023-11-19T09:43:40;97862.66;;;7.31;82.67
27202;BME280;14717;46.924;15.474;2023-11-19T09:46:06;97867.03;;;7.27;82.50
27202;BME280;14717;46.924;15.474;2023-11-19T09:48:33;97867.31;;;7.31;82.31
27202;BME280;14717;46.924;15.474;2023-11-19T09:51:00;97871.44;;;7.28;83.07
27202;BME280;14717;46.924;15.474;2023-11-19T09:53:26;97864.28;;;7.32;81.77
27202;BME280;14717;46.924;15.474;2023-11-19T09:56:03;97839.00;;;7.25;80.88
27202;BME280;14717;46.924;15.474;2023-11-19T09:58:33;97826.34;;;7.19;82.74
27202;BME280;14717;46.924;15.474;2023-11-19T10:01:10;97834.94;;;7.48;82.63
27202;BME280;14717;46.924;15.474;2023-11-19T10:03:45;97850.84;;;7.70;80.10
27202;BME280;14717;46.924;15.474;2023-11-19T10:06:51;97845.91;;;7.92;79.87
27202;BME280;14717;46.924;15.474;2023-11-19T10:09:48;97831.31;;;7.87;78.37
27202;BME280;14717;46.924;15.474;2023-11-19T10:22:37;97764.28;;;7.68;79.13
27202;BME280;14717;46.924;15.474;2023-11-19T10:25:05;97758.47;;;7.89;79.39
27202;BME280;14717;46.924;15.474;2023-11-19T10:27:31;97755.97;;;7.98;78.23
27202;BME280;14717;46.924;15.474;2023-11-19T10:30:45;97753.75;;;8.00;77.71
27202;BME280;14717;46.924;15.474;2023-11-19T10:33:30;97749.97;;;7.81;78.62
27202;BME280;14717;46.924;15.474;2023-11-19T10:35:57;97742.50;;;7.86;78.12
27202;BME280;14717;46.924;15.474;2023-11-19T10:38:23;97740.00;;;7.95;78.27
27202;BME280;14717;46.924;15.474;2023-11-19T10:40:50;97740.25;;;8.13;78.03
27202;BME280;14717;46.924;15.474;2023-11-19T10:43:19;97754.78;;;8.33;76.78
27202;BME280;14717;46.924;15.474;2023-11-19T10:45:44;97744.78;;;8.52;76.33
27202;BME280;14717;46.924;15.474;2023-11-19T10:48:10;97740.53;;;8.74;75.63
27202;BME280;14717;46.924;15.474;2023-11-19T10:50:37;97734.16;;;8.79;74.68
27202;BME280;14717;46.924;15.474;2023-11-19T10:53:08;97725.53;;;8.47;75.90
27202;BME280;14717;46.924;15.474;2023-11-19T10:55:35;97721.91;;;8.56;75.53
27202;BME280;14717;46.924;15.474;2023-11-19T10:58:02;97714.44;;;8.62;75.37
27202;BME280;14717;46.924;15.474;2023-11-19T11:00:36;97704.03;;;8.92;74.09
27202;BME280;14717;46.924;15.474;2023-11-19T11:03:08;97716.16;;;8.96;75.84
27202;BME280;14717;46.924;15.474;2023-11-19T11:05:35;97706.13;;;9.10;73.43
27202;BME280;14717;46.924;15.474;2023-11-19T11:08:03;97687.19;;;8.98;73.47
27202;BME280;14717;46.924;15.474;2023-11-19T11:10:32;97699.19;;;8.79;73.14
27202;BME280;14717;46.924;15.474;2023-11-19T11:13:03;97698.19;;;9.03;71.89
27202;BME280;14717;46.924;15.474;2023-11-19T11:15:30;97688.16;;;9.17;75.33
27202;BME280;14717;46.924;15.474;2023-11-19T11:17:59;97690.31;;;9.25;72.68
27202;BME280;14717;46.924;15.474;2023-11-19T11:20:30;97708.28;;;8.80;72.53
27202;BME280;14717;46.924;15.474;2023-11-19T11:37:15;97682.22;;;9.62;69.21
27202;BME280;14717;46.924;15.474;2023-11-19T11:39:41;97673.25;;;9.46;71.67
27202;BME280;14717;46.924;15.474;2023-11-19T11:45:15;97672.25;;;9.37;71.22
27202;BME280;14717;46.924;15.474;2023-11-19T11:50:16;97664.22;;;9.41;72.67
27202;BME280;14717;46.924;15.474;2023-11-19T11:55:39;97650.97;;;9.43;71.51
27202;BME280;14717;46.924;15.474;2023-11-19T11:58:29;97640.59;;;9.86;69.64
27202;BME280;14717;46.924;15.474;2023-11-19T12:00:57;97659.69;;;10.06;66.80
27202;BME280;14717;46.924;15.474;2023-11-19T12:03:23;97642.84;;;10.08;66.44
27202;BME280;14717;46.924;15.474;2023-11-19T12:05:49;97634.25;;;9.86;67.09
27202;BME280;14717;46.924;15.474;2023-11-19T12:08:19;97641.03;;;9.70;70.30
27202;BME280;14717;46.924;15.474;2023-11-19T12:10:53;97641.41;;;10.10;68.50
27202;BME280;14717;46.924;15.474;2023-11-19T12:13:20;97644.13;;;10.33;65.20
27202;BME280;14717;46.924;15.474;2023-11-19T12:18:26;97644.91;;;10.57;66.32
27202;BME280;14717;46.924;15.474;2023-11-19T12:20:52;97629.38;;;10.61;64.73
27202;BME280;14717;46.924;15.474;2023-11-19T12:23:17;97644.75;;;10.85;64.95
27202;BME280;14717;46.924;15.474;2023-11-19T12:25:43;97617.38;;;11.02;63.74
27202;BME280;14717;46.924;15.474;2023-11-19T12:28:13;97617.81;;;11.09;63.89
27202;BME280;14717;46.924;15.474;2023-11-19T12:30:39;97610.88;;;11.11;62.80
27202;BME280;14717;46.924;15.474;2023-11-19T12:33:09;97619.31;;;11.20;62.57
27202;BME280;14717;46.924;15.474;2023-11-19T12:35:41;97604.38;;;11.21;61.56
27202;BME280;14717;46.924;15.474;2023-11-19T12:38:08;97607.59;;;11.09;61.51
27202;BME280;14717;46.924;15.474;2023-11-19T12:40:33;97615.84;;;10.96;61.22
27202;BME280;14717;46.924;15.474;2023-11-19T12:42:59;97611.75;;;10.75;60.83
27202;BME280;14717;46.924;15.474;2023-11-19T12:45:34;97620.63;;;10.91;60.89
27202;BME280;14717;46.924;15.474;2023-11-19T12:48:07;97589.16;;;11.05;60.23
27202;BME280;14717;46.924;15.474;2023-11-19T12:50:55;97609.81;;;10.76;60.86
27202;BME280;14717;46.924;15.474;2023-11-19T12:53:23;97607.69;;;11.04;57.55
27202;BME280;14717;46.924;15.474;2023-11-19T12:55:49;97600.53;;;11.17;55.75
27202;BME280;14717;46.924;15.474;2023-11-19T12:58:35;97612.91;;;11.38;55.73
27202;BME280;14717;46.924;15.474;2023-11-19T13:01:06;97598.31;;;11.50;55.37
27202;BME280;14717;46.924;15.474;2023-11-19T13:03:33;97593.13;;;11.31;55.46
27202;BME280;14717;46.924;15.474;2023-11-19T13:08:29;97612.81;;;11.43;55.78
27202;BME280;14717;46.924;15.474;2023-11-19T13:11:00;97603.34;;;11.48;57.21
27202;BME280;14717;46.924;15.474;2023-11-19T13:13:26;97617.94;;;11.36;56.67
27202;BME280;14717;46.924;15.474;2023-11-19T13:15:51;97607.69;;;11.36;56.77
27202;BME280;14717;46.924;15.474;2023-11-19T13:18:17;97600.88;;;11.29;58.20
27202;BME280;14717;46.924;15.474;2023-11-19T13:20:42;97598.66;;;11.31;57.73
27202;BME280;14717;46.924;15.474;2023-11-19T13:23:08;97595.59;;;11.32;58.86
27202;BME280;14717;46.924;15.474;2023-11-19T13:25:34;97598.91;;;11.48;58.75
27202;BME280;14717;46.924;15.474;2023-11-19T13:28:08;97605.03;;;11.45;59.27
27202;BME280;14717;46.924;15.474;2023-11-19T13:30:35;97584.63;;;11.27;59.47
27202;BME280;14717;46.924;15.474;2023-11-19T13:33:06;97591.69;;;11.33;58.41
27202;BME280;14717;46.924;15.474;2023-11-19T13:35:33;97602.03;;;11.28;58.42
27202;BME280;14717;46.924;15.474;2023-11-19T13:38:03;97593.34;;;11.34;58.24
27202;BME280;14717;46.924;15.474;2023-11-19T13:40:29;97597.88;;;11.44;57.24
27202;BME280;14717;46.924;15.474;2023-11-19T13:42:55;97597.00;;;11.30;56.94